createdAt,value
2023-03-29T00:03:15.854Z,17.82
2023-03-29T00:08:22.095Z,19.68
2023-03-29T00:13:28.599Z,16.06
2023-03-29T00:18:33.440Z,14.34
2023-03-29T00:23:36.833Z,17.72
2023-03-29T00:28:40.269Z,17.01
2023-03-29T00:33:45.860Z,63.18
2023-03-29T00:38:49.396Z,20.87
2023-03-29T00:43:57.487Z,16.79
2023-03-29T00:49:08.878Z,16.53
2023-03-29T00:54:19.721Z,16.72
2023-03-29T00:59:29.792Z,16.78
2023-03-29T01:04:40.657Z,16.26
2023-03-29T01:09:47.940Z,16.26
2023-03-29T01:14:59.035Z,16.71
2023-03-29T01:20:13.539Z,17.54
2023-03-29T01:25:26.718Z,17.15
2023-03-29T01:30:34.707Z,16.10
2023-03-29T01:35:44.818Z,18.04
2023-03-29T01:40:50.499Z,16.17
2023-03-29T01:46:03.240Z,30.18
2023-03-29T01:51:10.618Z,18.41
2023-03-29T01:56:16.680Z,17.78
2023-03-29T02:01:26.027Z,17.77
2023-03-29T02:06:32.925Z,19.63
2023-03-29T02:11:37.724Z,18.17
2023-03-29T02:16:42.476Z,18.23
2023-03-29T02:21:53.438Z,18.20
2023-03-29T02:26:57.136Z,21.30
2023-03-29T02:32:08.164Z,17.46
2023-03-29T02:37:16.187Z,16.79
2023-03-29T02:42:23.835Z,26.62
2023-03-29T02:47:34.818Z,18.20
2023-03-29T02:52:42.704Z,21.25
2023-03-29T02:57:48.359Z,17.85
2023-03-29T03:02:55.672Z,13.69
2023-03-29T03:08:01.446Z,13.07
2023-03-29T03:13:07.216Z,12.42
2023-03-29T03:18:14.248Z,12.77
2023-03-29T03:23:20.696Z,13.76
2023-03-29T03:28:25.247Z,14.26
2023-03-29T03:33:30.893Z,13.14
2023-03-29T03:39:09.293Z,18.96
2023-03-29T03:44:13.338Z,14.83
2023-03-29T03:49:22.881Z,13.27
2023-03-29T03:54:28.850Z,13.13
2023-03-29T03:59:53.659Z,12.61
2023-03-29T04:05:05.190Z,13.27
2023-03-29T04:10:12.603Z,14.07
2023-03-29T04:15:26.839Z,12.96
2023-03-29T04:20:40.315Z,11.83
2023-03-29T04:25:44.393Z,14.00
2023-03-29T04:31:06.736Z,12.52
2023-03-29T04:36:32.983Z,11.92
2023-03-29T04:41:36.591Z,13.30
2023-03-29T04:46:50.279Z,13.82
2023-03-29T04:52:33.146Z,12.67
2023-03-29T04:57:38.435Z,13.48
2023-03-29T05:02:47.593Z,13.21
2023-03-29T05:07:53.172Z,17.31
2023-03-29T05:13:01.357Z,17.27
2023-03-29T05:18:08.156Z,17.11
2023-03-29T05:23:17.581Z,17.81
2023-03-29T05:28:40.902Z,17.35
2023-03-29T05:33:49.136Z,19.05
2023-03-29T05:38:55.140Z,20.52
2023-03-29T05:43:59.808Z,25.17
2023-03-29T05:49:08.933Z,18.44
2023-03-29T05:54:36.915Z,19.24
2023-03-29T05:59:44.306Z,24.36
2023-03-29T06:04:48.745Z,20.29
2023-03-29T06:10:02.880Z,17.12
2023-03-29T06:15:07.040Z,28.28
2023-03-29T06:20:22.147Z,15.86
2023-03-29T06:25:32.258Z,19.02
2023-03-29T06:30:35.989Z,16.19
2023-03-29T06:35:42.727Z,16.68
2023-03-29T06:40:51.525Z,16.40
2023-03-29T06:45:57.696Z,15.78
2023-03-29T06:51:09.131Z,13.48
2023-03-29T06:56:17.702Z,13.95
2023-03-29T07:01:33.153Z,16.44
2023-03-29T07:06:48.311Z,14.86
2023-03-29T07:11:54.513Z,13.22
2023-03-29T07:17:04.225Z,12.80
2023-03-29T07:22:15.333Z,12.70
2023-03-29T07:27:27.679Z,11.48
2023-03-29T07:32:31.809Z,13.55
2023-03-29T07:37:56.092Z,13.54
2023-03-29T07:43:09.002Z,14.32
2023-03-29T07:48:13.216Z,15.69
2023-03-29T07:53:27.041Z,13.17
2023-03-29T07:58:34.369Z,16.10
2023-03-29T08:03:37.964Z,18.55
2023-03-29T08:08:42.810Z,16.42
2023-03-29T08:13:51.562Z,14.92
2023-03-29T08:19:33.202Z,14.20
2023-03-29T08:24:43.672Z,26.64
2023-03-29T08:29:48.712Z,16.09
2023-03-29T08:34:55.273Z,13.17
2023-03-29T08:40:03.637Z,14.37
2023-03-29T08:45:33.885Z,15.25
2023-03-29T08:50:42.182Z,13.98
2023-03-29T08:55:47.364Z,14.26
2023-03-29T09:01:11.627Z,12.62
2023-03-29T09:06:28.120Z,14.45
2023-03-29T09:11:51.539Z,14.17
2023-03-29T09:17:02.202Z,14.98
2023-03-29T09:22:10.784Z,12.60
2023-03-29T09:27:19.984Z,11.80
2023-03-29T09:32:33.027Z,15.88
2023-03-29T09:37:42.592Z,11.58
2023-03-29T09:42:52.057Z,17.33
2023-03-29T09:48:02.040Z,15.56
2023-03-29T09:53:10.500Z,16.52
2023-03-29T09:58:23.376Z,11.11
2023-03-29T10:03:31.380Z,13.55
2023-03-29T10:08:49.642Z,12.85
2023-03-29T10:13:57.477Z,19.15
2023-03-29T10:19:08.358Z,11.26
2023-03-29T10:24:11.821Z,12.80
2023-03-29T10:29:15.390Z,11.26
2023-03-29T10:34:25.287Z,13.10
2023-03-29T10:39:31.893Z,13.61
2023-03-29T10:44:36.859Z,14.02
2023-03-29T10:49:44.939Z,14.58
2023-03-29T10:54:49.960Z,11.77
2023-03-29T11:00:02.675Z,13.81
2023-03-29T11:05:18.587Z,11.34
2023-03-29T11:10:33.933Z,12.46
2023-03-29T11:15:48.175Z,11.99
2023-03-29T11:21:00.587Z,14.76
2023-03-29T11:26:15.067Z,12.31
2023-03-29T11:31:26.890Z,11.70
2023-03-29T11:36:39.996Z,11.18
2023-03-29T11:41:48.034Z,11.27
2023-03-29T11:46:57.217Z,14.19
2023-03-29T11:52:07.149Z,10.93
2023-03-29T11:57:18.035Z,10.46
2023-03-29T12:02:28.039Z,12.15
2023-03-29T12:07:36.941Z,12.44
2023-03-29T12:12:46.826Z,12.15
2023-03-29T12:17:57.130Z,12.82
2023-03-29T12:23:06.832Z,12.17
2023-03-29T12:28:33.321Z,12.79
2023-03-29T12:33:55.624Z,10.82
2023-03-29T12:39:20.529Z,11.70
2023-03-29T12:44:46.003Z,11.68
2023-03-29T12:49:59.024Z,11.01
2023-03-29T12:55:05.644Z,11.69
2023-03-29T13:00:14.074Z,13.08
2023-03-29T13:05:31.835Z,13.18
2023-03-29T13:10:43.112Z,11.73
2023-03-29T13:15:46.899Z,17.70
2023-03-29T13:20:59.943Z,11.95
2023-03-29T13:26:16.881Z,11.66
2023-03-29T13:31:30.946Z,10.91
2023-03-29T13:36:46.793Z,12.19
2023-03-29T13:41:55.301Z,11.05
2023-03-29T13:47:16.414Z,14.01
2023-03-29T13:52:25.636Z,11.86
2023-03-29T13:57:37.631Z,13.15
2023-03-29T14:02:46.645Z,10.91
2023-03-29T14:07:55.548Z,12.03
2023-03-29T14:13:04.776Z,20.82
2023-03-29T14:18:12.130Z,13.41
2023-03-29T14:23:20.740Z,14.05
2023-03-29T14:28:27.075Z,15.47
2023-03-29T14:33:33.554Z,13.80
2023-03-29T14:38:37.649Z,16.11
2023-03-29T14:43:46.521Z,12.01
2023-03-29T14:48:50.562Z,14.03
2023-03-29T14:53:57.003Z,14.80
2023-03-29T14:59:05.146Z,12.48
2023-03-29T15:04:14.024Z,13.40
2023-03-29T15:09:20.514Z,12.85
2023-03-29T15:14:27.240Z,12.54
2023-03-29T15:19:33.581Z,12.85
2023-03-29T15:24:44.515Z,21.52
2023-03-29T15:30:00.776Z,11.50
2023-03-29T15:35:09.288Z,13.60
2023-03-29T15:40:17.020Z,12.33
2023-03-29T15:45:25.868Z,12.02
2023-03-29T15:50:31.738Z,12.11
2023-03-29T15:55:40.797Z,12.02
2023-03-29T16:00:50.657Z,14.18
2023-03-29T16:05:57.019Z,13.86
2023-03-29T16:11:02.584Z,12.73
2023-03-29T16:16:10.742Z,17.01
2023-03-29T16:21:18.509Z,15.54
2023-03-29T16:26:26.203Z,14.36
2023-03-29T16:31:34.066Z,12.04
2023-03-29T16:36:37.594Z,13.82
2023-03-29T16:41:41.843Z,12.80
2023-03-29T16:46:46.594Z,30.87
2023-03-29T16:51:50.099Z,14.63
2023-03-29T16:56:53.600Z,12.94
2023-03-29T17:01:58.461Z,16.39
2023-03-29T17:07:01.940Z,12.49
2023-03-29T17:12:07.671Z,13.62
2023-03-29T17:17:12.371Z,20.10
2023-03-29T17:22:18.969Z,13.97
2023-03-29T17:27:22.319Z,16.84
2023-03-29T17:32:27.244Z,17.51
2023-03-29T17:37:30.770Z,14.22
2023-03-29T17:42:34.155Z,13.73
2023-03-29T17:47:41.965Z,14.81
2023-03-29T17:52:45.413Z,15.20
2023-03-29T17:57:51.797Z,13.89
2023-03-29T18:02:56.697Z,16.02
2023-03-29T18:08:00.149Z,18.98
2023-03-29T18:13:03.683Z,20.18
2023-03-29T18:18:08.568Z,17.89
2023-03-29T18:23:11.974Z,22.34
2023-03-29T18:28:15.673Z,21.05
2023-03-29T18:33:25.774Z,20.64
2023-03-29T18:38:29.198Z,20.85
2023-03-29T18:43:33.962Z,20.48
2023-03-29T18:48:39.855Z,18.52
2023-03-29T18:53:44.419Z,19.65
2023-03-29T18:58:48.324Z,18.71
2023-03-29T19:03:55.536Z,19.69
2023-03-29T19:09:05.183Z,21.03
2023-03-29T19:14:09.330Z,21.88
2023-03-29T19:19:16.424Z,21.39
2023-03-29T19:24:22.052Z,21.54
2023-03-29T19:29:27.742Z,25.86
2023-03-29T19:34:32.537Z,25.89
2023-03-29T19:39:36.035Z,22.59
2023-03-29T19:44:39.638Z,23.12
2023-03-29T19:49:47.375Z,23.47
2023-03-29T19:54:53.022Z,23.05
2023-03-29T19:59:58.664Z,23.87
2023-03-29T20:05:04.393Z,27.40
2023-03-29T20:10:09.853Z,28.04
2023-03-29T20:15:13.275Z,24.55
2023-03-29T20:20:18.248Z,22.63
2023-03-29T20:25:23.838Z,22.96
2023-03-29T20:30:27.321Z,24.15
2023-03-29T20:35:32.364Z,25.81
2023-03-29T20:40:37.245Z,25.78
2023-03-29T20:45:52.606Z,26.54
2023-03-29T20:50:59.007Z,25.87
2023-03-29T20:56:06.536Z,26.88
2023-03-29T21:01:10.144Z,27.71
2023-03-29T21:06:15.115Z,26.86
2023-03-29T21:11:18.545Z,28.50
2023-03-29T21:16:22.136Z,28.98
2023-03-29T21:21:27.054Z,28.33
2023-03-29T21:26:33.518Z,32.05
2023-03-29T21:31:37.189Z,30.36
2023-03-29T21:36:42.501Z,31.87
2023-03-29T21:41:45.987Z,40.96
2023-03-29T21:46:49.465Z,34.80
2023-03-29T21:51:54.420Z,33.86
2023-03-29T21:57:00.217Z,35.72
2023-03-29T22:02:03.782Z,35.65
2023-03-29T22:07:10.704Z,34.71
2023-03-29T22:12:14.112Z,38.80
2023-03-29T22:17:19.777Z,34.73
2023-03-29T22:22:27.177Z,34.82
2023-03-29T22:27:30.717Z,36.07
2023-03-29T22:32:36.549Z,36.44
2023-03-29T22:37:45.874Z,35.73
2023-03-29T22:42:49.232Z,33.87
2023-03-29T22:47:52.694Z,32.56
2023-03-29T22:52:57.475Z,33.14
2023-03-29T22:58:01.159Z,32.26
2023-03-29T23:03:04.702Z,31.53
2023-03-29T23:08:09.593Z,31.83
2023-03-29T23:13:13.683Z,32.02
2023-03-29T23:18:18.358Z,32.53
2023-03-29T23:23:26.950Z,33.42
2023-03-29T23:28:31.725Z,33.75
2023-03-29T23:33:36.147Z,33.44
2023-03-29T23:38:42.476Z,31.34
2023-03-29T23:43:50.215Z,34.86
2023-03-29T23:48:56.023Z,30.98
2023-03-29T23:54:00.752Z,29.80
2023-03-29T23:59:04.534Z,28.82
